PWSweather.com
Personal Weather Stations
Station Observations
KCOBLACK1
Chalet Park, Black Hawk, CO 80422

Chalet ParkBlack Hawk, CO 80422

Lat: 39.8294, Lon: -105.48

Elevation: 9370

Station Type: Vantage Pro2

http://www.oscaranddeb.com/weather

Latest ConditionsUpdated 8:00:00 AM MST Wednesday, Nov 21, 2018
Currently Today's Max Today's Min Today's Average
Temperature 32.6°F0.3°C 34.2°F1.2°C 31.0°F-0.6°C 32.4°F0.2°C
Dew Point 3.1°F-16.1°C 5.3°F-14.8°C 2.2°F-16.6°C 3.4°F-15.9°C
Winds 2.8 mph NW4.5 kmh NW 8.3 mph -13.4 kmh - - 4.6 mph 7.4 kmh
Wind Gusts 7.0 mph11.3 kmh 21.0 mph33.8 kmh - -
Humidity 28% 32% 27% 29%
Pressure 30.18 in1022.0 mb 30.18 in1022.0 mb 30.13 in1020.3 mb -
Hour Temp Dew Point Humidity Winds Wind Gusts Pressure Precip Precip Rate Daily Precip Total
08:00 AM 32.6°F0.3°C 3.1°F-16.1°C 28% 2.8 mph NW4.5 kmh NW 7.0 mph11.3 kmh 30.18 in1022.0 mb 0.00 in0.0 mm 0.00 in0.0 mm 0.00 in0.0 mm
07:55 AM 32.6°F0.3°C 3.1°F-16.1°C 28% 2.8 mph N4.5 kmh N 6.0 mph9.7 kmh 30.18 in1022.0 mb 0.00 in0.0 mm 0.00 in0.0 mm 0.00 in0.0 mm
07:50 AM 32.2°F0.1°C 2.8°F-16.2°C 28% 2.9 mph NNW4.7 kmh NNW 5.0 mph8.0 kmh 30.18 in1022.0 mb 0.00 in0.0 mm 0.00 in0.0 mm 0.00 in0.0 mm
07:45 AM 32.1°F0.1°C 2.7°F-16.3°C 28% 2.5 mph NNW4.0 kmh NNW 7.0 mph11.3 kmh 30.18 in1022.0 mb 0.00 in0.0 mm 0.00 in0.0 mm 0.00 in0.0 mm
07:40 AM 31.7°F-0.2°C 3.1°F-16.1°C 29% 3.4 mph NW5.5 kmh NW 7.0 mph11.3 kmh 30.17 in1021.7 mb 0.00 in0.0 mm 0.00 in0.0 mm 0.00 in0.0 mm
07:35 AM 31.6°F-0.2°C 3.0°F-16.1°C 29% 3.5 mph NNW5.6 kmh NNW 7.0 mph11.3 kmh 30.17 in1021.7 mb 0.00 in0.0 mm 0.00 in0.0 mm 0.00 in0.0 mm
07:30 AM 31.7°F-0.2°C 3.1°F-16.1°C 29% 2.7 mph NW4.3 kmh NW 7.0 mph11.3 kmh 30.17 in1021.7 mb 0.00 in0.0 mm 0.00 in0.0 mm 0.00 in0.0 mm
07:25 AM 31.7°F-0.2°C 2.4°F-16.4°C 28% 3.1 mph NNW5.0 kmh NNW 5.0 mph8.0 kmh 30.17 in1021.7 mb 0.00 in0.0 mm 0.00 in0.0 mm 0.00 in0.0 mm
07:20 AM 31.5°F-0.3°C 2.9°F-16.2°C 29% 2.1 mph N3.4 kmh N 4.0 mph6.4 kmh 30.17 in1021.7 mb 0.00 in0.0 mm 0.00 in0.0 mm 0.00 in0.0 mm
07:15 AM 31.2°F-0.4°C 2.7°F-16.3°C 29% 1.8 mph NW2.9 kmh NW 4.0 mph6.4 kmh 30.16 in1021.3 mb 0.00 in0.0 mm 0.00 in0.0 mm 0.00 in0.0 mm
07:10 AM 31.3°F-0.4°C 2.8°F-16.2°C 29% 2.4 mph NNW3.9 kmh NNW 5.0 mph8.0 kmh 30.16 in1021.3 mb 0.00 in0.0 mm 0.00 in0.0 mm 0.00 in0.0 mm
07:05 AM 31.4°F-0.3°C 2.9°F-16.2°C 29% 2.8 mph NNW4.5 kmh NNW 6.0 mph9.7 kmh 30.16 in1021.3 mb 0.00 in0.0 mm 0.00 in0.0 mm 0.00 in0.0 mm
07:00 AM 31.4°F-0.3°C 2.9°F-16.2°C 29% 3.7 mph NW6.0 kmh NW 6.0 mph9.7 kmh 30.16 in1021.3 mb 0.00 in0.0 mm 0.00 in0.0 mm 0.00 in0.0 mm
06:55 AM 31.6°F-0.2°C 3.0°F-16.1°C 29% 3.9 mph NW6.3 kmh NW 9.0 mph14.5 kmh 30.16 in1021.3 mb 0.00 in0.0 mm 0.00 in0.0 mm 0.00 in0.0 mm
06:50 AM 31.7°F-0.2°C 2.4°F-16.4°C 28% 4.9 mph NW7.9 kmh NW 9.0 mph14.5 kmh 30.16 in1021.3 mb 0.00 in0.0 mm 0.00 in0.0 mm 0.00 in0.0 mm
06:45 AM 31.8°F-0.1°C 2.5°F-16.4°C 28% 4.8 mph NW7.7 kmh NW 10.0 mph16.1 kmh 30.16 in1021.3 mb 0.00 in0.0 mm 0.00 in0.0 mm 0.00 in0.0 mm
06:40 AM 31.7°F-0.2°C 2.4°F-16.4°C 28% 5.9 mph NW9.5 kmh NW 10.0 mph16.1 kmh 30.15 in1021.0 mb 0.00 in0.0 mm 0.00 in0.0 mm 0.00 in0.0 mm
06:35 AM 31.5°F-0.3°C 2.9°F-16.2°C 29% 5.1 mph NW8.2 kmh NW 9.0 mph14.5 kmh 30.15 in1021.0 mb 0.00 in0.0 mm 0.00 in0.0 mm 0.00 in0.0 mm
06:30 AM 31.5°F-0.3°C 2.9°F-16.2°C 29% 4.6 mph NNW7.4 kmh NNW 8.0 mph12.9 kmh 30.15 in1021.0 mb 0.00 in0.0 mm 0.00 in0.0 mm 0.00 in0.0 mm
06:25 AM 31.8°F-0.1°C 2.5°F-16.4°C 28% 3.8 mph NNW6.1 kmh NNW 8.0 mph12.9 kmh 30.14 in1020.7 mb 0.00 in0.0 mm 0.00 in0.0 mm 0.00 in0.0 mm
06:20 AM 32.2°F0.1°C 2.8°F-16.2°C 28% 4.5 mph NNW7.2 kmh NNW 9.0 mph14.5 kmh 30.14 in1020.7 mb 0.00 in0.0 mm 0.00 in0.0 mm 0.00 in0.0 mm
06:15 AM 32.3°F0.2°C 2.9°F-16.2°C 28% 5.5 mph NW8.9 kmh NW 10.0 mph16.1 kmh 30.14 in1020.7 mb 0.00 in0.0 mm 0.00 in0.0 mm 0.00 in0.0 mm
06:10 AM 32.1°F0.1°C 2.7°F-16.3°C 28% 5.3 mph NW8.5 kmh NW 10.0 mph16.1 kmh 30.14 in1020.7 mb 0.00 in0.0 mm 0.00 in0.0 mm 0.00 in0.0 mm
06:05 AM 31.9°F-0.1°C 2.5°F-16.4°C 28% 3.6 mph NNW5.8 kmh NNW 6.0 mph9.7 kmh 30.14 in1020.7 mb 0.00 in0.0 mm 0.00 in0.0 mm 0.00 in0.0 mm
06:00 AM 31.9°F-0.1°C 2.5°F-16.4°C 28% 3.4 mph NNW5.5 kmh NNW 9.0 mph14.5 kmh 30.14 in1020.7 mb 0.00 in0.0 mm 0.00 in0.0 mm 0.00 in0.0 mm
05:55 AM 31.8°F-0.1°C 2.5°F-16.4°C 28% 4.4 mph NW7.1 kmh NW 9.0 mph14.5 kmh 30.14 in1020.7 mb 0.00 in0.0 mm 0.00 in0.0 mm 0.00 in0.0 mm
05:50 AM 31.9°F-0.1°C 2.5°F-16.4°C 28% 4.2 mph NW6.8 kmh NW 8.0 mph12.9 kmh 30.14 in1020.7 mb 0.00 in0.0 mm 0.00 in0.0 mm 0.00 in0.0 mm
05:45 AM 31.9°F-0.1°C 2.5°F-16.4°C 28% 4.5 mph NW7.2 kmh NW 8.0 mph12.9 kmh 30.14 in1020.7 mb 0.00 in0.0 mm 0.00 in0.0 mm 0.00 in0.0 mm
05:40 AM 31.5°F-0.3°C 2.2°F-16.6°C 28% 3.9 mph NW6.3 kmh NW 7.0 mph11.3 kmh 30.14 in1020.7 mb 0.00 in0.0 mm 0.00 in0.0 mm 0.00 in0.0 mm
05:35 AM 31.1°F-0.5°C 2.6°F-16.3°C 29% 3.5 mph NW5.6 kmh NW 6.0 mph9.7 kmh 30.14 in1020.7 mb 0.00 in0.0 mm 0.00 in0.0 mm 0.00 in0.0 mm
05:30 AM 31.0°F-0.6°C 2.5°F-16.4°C 29% 2.6 mph NW4.2 kmh NW 7.0 mph11.3 kmh 30.14 in1020.7 mb 0.00 in0.0 mm 0.00 in0.0 mm 0.00 in0.0 mm
05:25 AM 31.1°F-0.5°C 2.6°F-16.3°C 29% 3.4 mph NW5.5 kmh NW 8.0 mph12.9 kmh 30.14 in1020.7 mb 0.00 in0.0 mm 0.00 in0.0 mm 0.00 in0.0 mm
05:20 AM 31.1°F-0.5°C 2.6°F-16.3°C 29% 4.5 mph NW7.2 kmh NW 8.0 mph12.9 kmh 30.14 in1020.7 mb 0.00 in0.0 mm 0.00 in0.0 mm 0.00 in0.0 mm
05:15 AM 31.1°F-0.5°C 2.6°F-16.3°C 29% 3.8 mph NW6.1 kmh NW 7.0 mph11.3 kmh 30.14 in1020.7 mb 0.00 in0.0 mm 0.00 in0.0 mm 0.00 in0.0 mm
05:10 AM 31.2°F-0.4°C 2.7°F-16.3°C 29% 4.2 mph NW6.8 kmh NW 7.0 mph11.3 kmh 30.14 in1020.7 mb 0.00 in0.0 mm 0.00 in0.0 mm 0.00 in0.0 mm
05:05 AM 31.4°F-0.3°C 2.9°F-16.2°C 29% 3.7 mph NW6.0 kmh NW 7.0 mph11.3 kmh 30.13 in1020.3 mb 0.00 in0.0 mm 0.00 in0.0 mm 0.00 in0.0 mm
05:00 AM 31.7°F-0.2°C 2.4°F-16.4°C 28% 3.8 mph NW6.1 kmh NW 8.0 mph12.9 kmh 30.13 in1020.3 mb 0.00 in0.0 mm 0.00 in0.0 mm 0.00 in0.0 mm
04:55 AM 32.1°F0.1°C 2.7°F-16.3°C 28% 4.3 mph NW6.9 kmh NW 8.0 mph12.9 kmh 30.13 in1020.3 mb 0.00 in0.0 mm 0.00 in0.0 mm 0.00 in0.0 mm
04:50 AM 32.2°F0.1°C 2.8°F-16.2°C 28% 4.2 mph NW6.8 kmh NW 8.0 mph12.9 kmh 30.13 in1020.3 mb 0.00 in0.0 mm 0.00 in0.0 mm 0.00 in0.0 mm
04:45 AM 32.3°F0.2°C 2.9°F-16.2°C 28% 4.3 mph NW6.9 kmh NW 8.0 mph12.9 kmh 30.13 in1020.3 mb 0.00 in0.0 mm 0.00 in0.0 mm 0.00 in0.0 mm
04:40 AM 32.6°F0.3°C 2.4°F-16.4°C 27% 4.9 mph NW7.9 kmh NW 11.0 mph17.7 kmh 30.13 in1020.3 mb 0.00 in0.0 mm 0.00 in0.0 mm 0.00 in0.0 mm
04:35 AM 32.8°F0.4°C 2.5°F-16.4°C 27% 5.6 mph NW9.0 kmh NW 11.0 mph17.7 kmh 30.13 in1020.3 mb 0.00 in0.0 mm 0.00 in0.0 mm 0.00 in0.0 mm
04:30 AM 32.7°F0.4°C 2.5°F-16.4°C 27% 5.6 mph NW9.0 kmh NW 11.0 mph17.7 kmh 30.13 in1020.3 mb 0.00 in0.0 mm 0.00 in0.0 mm 0.00 in0.0 mm
04:25 AM 32.5°F0.3°C 2.3°F-16.5°C 27% 5.8 mph NW9.3 kmh NW 10.0 mph16.1 kmh 30.13 in1020.3 mb 0.00 in0.0 mm 0.00 in0.0 mm 0.00 in0.0 mm
04:20 AM 32.6°F0.3°C 3.1°F-16.1°C 28% 4.5 mph NW7.2 kmh NW 10.0 mph16.1 kmh 30.13 in1020.3 mb 0.00 in0.0 mm 0.00 in0.0 mm 0.00 in0.0 mm
04:15 AM 32.9°F0.5°C 2.6°F-16.3°C 27% 6.6 mph NW10.6 kmh NW 11.0 mph17.7 kmh 30.13 in1020.3 mb 0.00 in0.0 mm 0.00 in0.0 mm 0.00 in0.0 mm
04:10 AM 32.5°F0.3°C 2.3°F-16.5°C 27% 7.7 mph WNW12.4 kmh WNW 11.0 mph17.7 kmh 30.13 in1020.3 mb 0.00 in0.0 mm 0.00 in0.0 mm 0.00 in0.0 mm
04:05 AM 32.3°F0.2°C 2.9°F-16.2°C 28% 6.3 mph NW10.1 kmh NW 12.0 mph19.3 kmh 30.13 in1020.3 mb 0.00 in0.0 mm 0.00 in0.0 mm 0.00 in0.0 mm
04:00 AM 32.5°F0.3°C 3.1°F-16.1°C 28% 5.4 mph NW8.7 kmh NW 12.0 mph19.3 kmh 30.13 in1020.3 mb 0.00 in0.0 mm 0.00 in0.0 mm 0.00 in0.0 mm
03:55 AM 32.4°F0.2°C 3.0°F-16.1°C 28% 5.3 mph NW8.5 kmh NW 10.0 mph16.1 kmh 30.13 in1020.3 mb 0.00 in0.0 mm 0.00 in0.0 mm 0.00 in0.0 mm
03:50 AM 32.4°F0.2°C 3.0°F-16.1°C 28% 3.7 mph NNW6.0 kmh NNW 8.0 mph12.9 kmh 30.13 in1020.3 mb 0.00 in0.0 mm 0.00 in0.0 mm 0.00 in0.0 mm
03:45 AM 32.5°F0.3°C 3.1°F-16.1°C 28% 3.7 mph NNW6.0 kmh NNW 10.0 mph16.1 kmh 30.13 in1020.3 mb 0.00 in0.0 mm 0.00 in0.0 mm 0.00 in0.0 mm
03:40 AM 32.6°F0.3°C 3.1°F-16.1°C 28% 4.9 mph NNW7.9 kmh NNW 10.0 mph16.1 kmh 30.13 in1020.3 mb 0.00 in0.0 mm 0.00 in0.0 mm 0.00 in0.0 mm
03:35 AM 32.8°F0.4°C 3.3°F-15.9°C 28% 4.0 mph N6.4 kmh N 11.0 mph17.7 kmh 30.13 in1020.3 mb 0.00 in0.0 mm 0.00 in0.0 mm 0.00 in0.0 mm
03:30 AM 32.9°F0.5°C 2.6°F-16.3°C 27% 5.7 mph NNW9.2 kmh NNW 12.0 mph19.3 kmh 30.13 in1020.3 mb 0.00 in0.0 mm 0.00 in0.0 mm 0.00 in0.0 mm
03:25 AM 32.9°F0.5°C 3.4°F-15.9°C 28% 5.1 mph N8.2 kmh N 13.0 mph20.9 kmh 30.13 in1020.3 mb 0.00 in0.0 mm 0.00 in0.0 mm 0.00 in0.0 mm
03:20 AM 32.9°F0.5°C 3.4°F-15.9°C 28% 5.3 mph N8.5 kmh N 13.0 mph20.9 kmh 30.13 in1020.3 mb 0.00 in0.0 mm 0.00 in0.0 mm 0.00 in0.0 mm
03:15 AM 32.9°F0.5°C 3.4°F-15.9°C 28% 3.9 mph N6.3 kmh N 10.0 mph16.1 kmh 30.14 in1020.7 mb 0.00 in0.0 mm 0.00 in0.0 mm 0.00 in0.0 mm
03:10 AM 33.0°F0.6°C 3.5°F-15.8°C 28% 5.4 mph N8.7 kmh N 13.0 mph20.9 kmh 30.14 in1020.7 mb 0.00 in0.0 mm 0.00 in0.0 mm 0.00 in0.0 mm
03:05 AM 32.9°F0.5°C 3.4°F-15.9°C 28% 5.4 mph NNW8.7 kmh NNW 13.0 mph20.9 kmh 30.14 in1020.7 mb 0.00 in0.0 mm 0.00 in0.0 mm 0.00 in0.0 mm
03:00 AM 32.8°F0.4°C 3.3°F-15.9°C 28% 5.5 mph N8.9 kmh N 12.0 mph19.3 kmh 30.14 in1020.7 mb 0.00 in0.0 mm 0.00 in0.0 mm 0.00 in0.0 mm
02:55 AM 32.8°F0.4°C 3.3°F-15.9°C 28% 5.3 mph NNW8.5 kmh NNW 15.0 mph24.1 kmh 30.14 in1020.7 mb 0.00 in0.0 mm 0.00 in0.0 mm 0.00 in0.0 mm
02:50 AM 32.8°F0.4°C 3.3°F-15.9°C 28% 6.6 mph NNW10.6 kmh NNW 15.0 mph24.1 kmh 30.14 in1020.7 mb 0.00 in0.0 mm 0.00 in0.0 mm 0.00 in0.0 mm
02:45 AM 32.8°F0.4°C 3.3°F-15.9°C 28% 6.5 mph NNW10.5 kmh NNW 14.0 mph22.5 kmh 30.13 in1020.3 mb 0.00 in0.0 mm 0.00 in0.0 mm 0.00 in0.0 mm
02:40 AM 33.2°F0.7°C 2.9°F-16.2°C 27% 5.5 mph NNW8.9 kmh NNW 14.0 mph22.5 kmh 30.14 in1020.7 mb 0.00 in0.0 mm 0.00 in0.0 mm 0.00 in0.0 mm
02:35 AM 33.3°F0.7°C 3.0°F-16.1°C 27% 6.2 mph N10.0 kmh N 14.0 mph22.5 kmh 30.14 in1020.7 mb 0.00 in0.0 mm 0.00 in0.0 mm 0.00 in0.0 mm
02:30 AM 33.3°F0.7°C 3.0°F-16.1°C 27% 5.0 mph N8.0 kmh N 11.0 mph17.7 kmh 30.14 in1020.7 mb 0.00 in0.0 mm 0.00 in0.0 mm 0.00 in0.0 mm
02:25 AM 33.5°F0.8°C 3.1°F-16.1°C 27% 4.8 mph N7.7 kmh N 13.0 mph20.9 kmh 30.14 in1020.7 mb 0.00 in0.0 mm 0.00 in0.0 mm 0.00 in0.0 mm
02:20 AM 33.4°F0.8°C 3.1°F-16.1°C 27% 5.6 mph N9.0 kmh N 13.0 mph20.9 kmh 30.14 in1020.7 mb 0.00 in0.0 mm 0.00 in0.0 mm 0.00 in0.0 mm
02:15 AM 33.4°F0.8°C 3.1°F-16.1°C 27% 6.0 mph N9.7 kmh N 15.0 mph24.1 kmh 30.14 in1020.7 mb 0.00 in0.0 mm 0.00 in0.0 mm 0.00 in0.0 mm
02:10 AM 33.4°F0.8°C 3.8°F-15.7°C 28% 6.1 mph N9.8 kmh N 15.0 mph24.1 kmh 30.14 in1020.7 mb 0.00 in0.0 mm 0.00 in0.0 mm 0.00 in0.0 mm
02:05 AM 33.4°F0.8°C 3.8°F-15.7°C 28% 5.3 mph NNE8.5 kmh NNE 15.0 mph24.1 kmh 30.14 in1020.7 mb 0.00 in0.0 mm 0.00 in0.0 mm 0.00 in0.0 mm
02:00 AM 33.5°F0.8°C 3.9°F-15.6°C 28% 6.9 mph NE11.1 kmh NE 15.0 mph24.1 kmh 30.14 in1020.7 mb 0.00 in0.0 mm 0.00 in0.0 mm 0.00 in0.0 mm
01:55 AM 33.2°F0.7°C 4.4°F-15.3°C 29% 5.4 mph N8.7 kmh N 16.0 mph25.7 kmh 30.14 in1020.7 mb 0.00 in0.0 mm 0.00 in0.0 mm 0.00 in0.0 mm
01:50 AM 32.8°F0.4°C 4.1°F-15.5°C 29% 5.1 mph NNE8.2 kmh NNE 16.0 mph25.7 kmh 30.14 in1020.7 mb 0.00 in0.0 mm 0.00 in0.0 mm 0.00 in0.0 mm
01:45 AM 33.0°F0.6°C 4.3°F-15.4°C 29% 4.3 mph N6.9 kmh N 11.0 mph17.7 kmh 30.14 in1020.7 mb 0.00 in0.0 mm 0.00 in0.0 mm 0.00 in0.0 mm
01:40 AM 33.3°F0.7°C 4.5°F-15.3°C 29% 5.4 mph NNW8.7 kmh NNW 14.0 mph22.5 kmh 30.14 in1020.7 mb 0.00 in0.0 mm 0.00 in0.0 mm 0.00 in0.0 mm
01:35 AM 33.4°F0.8°C 4.6°F-15.2°C 29% 7.2 mph N11.6 kmh N 14.0 mph22.5 kmh 30.14 in1020.7 mb 0.00 in0.0 mm 0.00 in0.0 mm 0.00 in0.0 mm
01:30 AM 33.6°F0.9°C 4.8°F-15.1°C 29% 4.1 mph N6.6 kmh N 10.0 mph16.1 kmh 30.14 in1020.7 mb 0.00 in0.0 mm 0.00 in0.0 mm 0.00 in0.0 mm
01:25 AM 34.0°F1.1°C 4.4°F-15.3°C 28% 4.6 mph N7.4 kmh N 21.0 mph33.8 kmh 30.14 in1020.7 mb 0.00 in0.0 mm 0.00 in0.0 mm 0.00 in0.0 mm
01:20 AM 34.2°F1.2°C 4.5°F-15.3°C 28% 8.3 mph NE13.4 kmh NE 21.0 mph33.8 kmh 30.14 in1020.7 mb 0.00 in0.0 mm 0.00 in0.0 mm 0.00 in0.0 mm
01:15 AM 33.7°F0.9°C 4.9°F-15.1°C 29% 6.2 mph N10.0 kmh N 15.0 mph24.1 kmh 30.14 in1020.7 mb 0.00 in0.0 mm 0.00 in0.0 mm 0.00 in0.0 mm
01:10 AM 33.5°F0.8°C 4.7°F-15.2°C 29% 7.4 mph N11.9 kmh N 15.0 mph24.1 kmh 30.14 in1020.7 mb 0.00 in0.0 mm 0.00 in0.0 mm 0.00 in0.0 mm
01:05 AM 32.8°F0.4°C 4.8°F-15.1°C 30% 5.8 mph NNW9.3 kmh NNW 11.0 mph17.7 kmh 30.14 in1020.7 mb 0.00 in0.0 mm 0.00 in0.0 mm 0.00 in0.0 mm
01:00 AM 32.5°F0.3°C 4.6°F-15.2°C 30% 4.2 mph N6.8 kmh N 8.0 mph12.9 kmh 30.14 in1020.7 mb 0.00 in0.0 mm 0.00 in0.0 mm 0.00 in0.0 mm
12:55 AM 33.1°F0.6°C 5.1°F-14.9°C 30% 3.6 mph N5.8 kmh N 10.0 mph16.1 kmh 30.14 in1020.7 mb 0.00 in0.0 mm 0.00 in0.0 mm 0.00 in0.0 mm
12:50 AM 33.6°F0.9°C 4.8°F-15.1°C 29% 4.4 mph N7.1 kmh N 10.0 mph16.1 kmh 30.14 in1020.7 mb 0.00 in0.0 mm 0.00 in0.0 mm 0.00 in0.0 mm
12:45 AM 33.7°F0.9°C 4.9°F-15.1°C 29% 4.5 mph N7.2 kmh N 11.0 mph17.7 kmh 30.14 in1020.7 mb 0.00 in0.0 mm 0.00 in0.0 mm 0.00 in0.0 mm
12:40 AM 33.9°F1.1°C 5.0°F-15.0°C 29% 5.3 mph N8.5 kmh N 11.0 mph17.7 kmh 30.14 in1020.7 mb 0.00 in0.0 mm 0.00 in0.0 mm 0.00 in0.0 mm
12:35 AM 33.9°F1.1°C 5.0°F-15.0°C 29% 5.9 mph N9.5 kmh N 14.0 mph22.5 kmh 30.14 in1020.7 mb 0.00 in0.0 mm 0.00 in0.0 mm 0.00 in0.0 mm
12:30 AM 32.7°F0.4°C 4.7°F-15.2°C 30% 6.7 mph N10.8 kmh N 14.0 mph22.5 kmh 30.14 in1020.7 mb 0.00 in0.0 mm 0.00 in0.0 mm 0.00 in0.0 mm
12:25 AM 31.5°F-0.3°C 5.1°F-14.9°C 32% 3.5 mph N5.6 kmh N 6.0 mph9.7 kmh 30.14 in1020.7 mb 0.00 in0.0 mm 0.00 in0.0 mm 0.00 in0.0 mm
12:20 AM 31.4°F-0.3°C 5.0°F-15.0°C 32% 3.7 mph NNW6.0 kmh NNW 6.0 mph9.7 kmh 30.15 in1021.0 mb 0.00 in0.0 mm 0.00 in0.0 mm 0.00 in0.0 mm
12:15 AM 31.5°F-0.3°C 5.1°F-14.9°C 32% 3.1 mph NNW5.0 kmh NNW 6.0 mph9.7 kmh 30.14 in1020.7 mb 0.00 in0.0 mm 0.00 in0.0 mm 0.00 in0.0 mm
12:10 AM 31.6°F-0.2°C 5.2°F-14.9°C 32% 2.5 mph NNW4.0 kmh NNW 5.0 mph8.0 kmh 30.15 in1021.0 mb 0.00 in0.0 mm 0.00 in0.0 mm 0.00 in0.0 mm
12:05 AM 31.7°F-0.2°C 5.3°F-14.8°C 32% 2.3 mph NNW3.7 kmh NNW 5.0 mph8.0 kmh 30.15 in1021.0 mb 0.00 in0.0 mm 0.00 in0.0 mm 0.00 in0.0 mm
12:00 AM 31.7°F-0.2°C 5.3°F-14.8°C 32% 2.5 mph NNW4.0 kmh NNW 5.0 mph8.0 kmh 30.15 in1021.0 mb 0.00 in0.0 mm 0.00 in0.0 mm 0.00 in0.0 mm